Flight Track Log - Related Links

Times and Time Zones

All times are in EDT time to prevent confusion due to time zone crossing. See the THY1073 flight status page for this flight to view local times or setup timezone preferences in your user account.

Time Position Orientation Groundspeed Altitude Reporting Facility
EDT Latitude Longitude Course Direction KTS MPH feet Rate Location/Type
Thu 01:12:00 AM 41.2756 24.4877 277° West  Level Estimated
Thu 01:13:00 AM 41.2821 24.3558 274° West  Level Estimated
Thu 01:14:00 AM 41.2884 24.2258 274° West  Level Estimated
Thu 01:15:00 AM 41.2945 24.0958 274° West  Level Estimated
Thu 01:16:00 AM 41.3005 23.9657 274° West  Level Estimated
Thu 01:17:00 AM 41.3063 23.8356 273° West  Level Estimated
Thu 01:18:00 AM 41.3120 23.7055 273° West  Level Estimated
Thu 01:19:00 AM 41.3175 23.5754 273° West  Level Estimated
Thu 01:20:00 AM 41.3229 23.4452 273° West  Level Estimated
Thu 01:21:00 AM 41.3281 23.3150 273° West  Level Estimated
Thu 01:22:00 AM 41.3332 23.1848 273° West  Level Estimated
Thu 01:23:00 AM 41.3382 23.0546 273° West  Level Estimated
Thu 01:24:00 AM 41.3430 22.9244 273° West  Level Estimated
Thu 01:25:00 AM 41.3476 22.7941 273° West  Level Estimated
Thu 01:26:00 AM 41.3521 22.6638 273° West  Level Estimated
Thu 01:27:00 AM 41.3565 22.5336 273° West  Level Estimated
Thu 01:28:00 AM 41.3607 22.4032 273° West  Level Estimated
Thu 01:29:00 AM 41.3648 22.2729 272° West  Level Estimated
Thu 01:30:00 AM 41.3687 22.1426 272° West  Level Estimated
Thu 01:31:00 AM 41.3725 22.0122 272° West  Level Estimated
Thu 01:32:00 AM 41.3761 21.8818 272° West  Level Estimated
Thu 01:33:00 AM 41.3796 21.7514 272° West  Level Estimated
Thu 01:34:00 AM 41.3829 21.6210 272° West  Level Estimated
Thu 01:35:00 AM 41.3861 21.4906 272° West  Level Estimated
Thu 01:36:00 AM 41.3891 21.3602 272° West  Level Estimated
Thu 01:37:00 AM 41.3920 21.2298 272° West  Level Estimated
Thu 01:38:00 AM 41.3948 21.0993 272° West  Level Estimated
Thu 01:39:00 AM 41.3974 20.9689 272° West  Level Estimated
Thu 01:40:00 AM 41.3998 20.8384 271° West  Level Estimated
Thu 01:41:00 AM 41.4021 20.7079 271° West  Level Estimated
Thu 01:42:00 AM 41.4043 20.5774 271° West  Level Estimated
Thu 01:43:00 AM 41.4063 20.4469 271° West  Level Estimated
Thu 01:44:00 AM 41.4081 20.3164 271° West  Level Estimated
Thu 01:45:00 AM 41.4099 20.1859 271° West  Level Estimated
Thu 01:46:00 AM 41.4114 20.0554 271° West  Level Estimated
Thu 01:47:00 AM 41.4128 19.9249 271° West  Level Estimated
Thu 01:48:00 AM 41.4141 19.7943 271° West  Level Estimated
Thu 01:49:00 AM 41.4147 19.7206 271° West  Level Estimated
Thu 01:50:00 AM 41.4147 19.7206 21° North  Level Estimated
Thu 01:51:00 AM 41.4147 19.7206 21° North  Level Estimated
Thu 01:52:00 AM 41.4147 19.7206 21° North  Level Estimated
Thu 01:53:00 AM 41.4147 19.7206 21° North  Level Estimated
Thu 01:54:00 AM 41.4147 19.7206 21° North  Level Estimated
Thu 01:55:00 AM 41.4147 19.7206 21° North  Level Estimated
Thu 01:56:00 AM 41.4147 19.7206 21° North  Level Estimated
Thu 01:57:00 AM 41.4147 19.7206 21° North  Level Estimated
Thu 01:58:00 AM 41.4147 19.7206 21° North  Level Estimated
Thu 01:59:00 AM 41.4147 19.7206 21° North  Level Estimated
Thu 02:00:00 AM 41.4147 19.7206 21° North  Level Estimated
Thu 02:01:00 AM 41.4147 19.7206 21° North  Level Estimated
Thu 02:02:00 AM 41.4147 19.7206 21° North  Level Estimated
Thu 02:03:00 AM 41.4147 19.7206 21° North  Level Estimated
Thu 02:04:00 AM 41.4147 19.7206 21° North  Level Estimated
Thu 02:05:00 AM 41.4147 19.7206 21° North  Level Estimated

Login

Don't have an account? Register now (free) for customized features, flight alerts, and more!